createdAt,value
2022-08-07T00:00:44.455Z,99.99
2022-08-07T00:02:36.883Z,99.99
2022-08-07T00:02:45.951Z,99.99
2022-08-07T00:03:47.292Z,99.87
2022-08-07T00:04:46.023Z,99.56
2022-08-07T00:05:46.433Z,99.20
2022-08-07T00:06:51.957Z,99.41
2022-08-07T00:07:47.014Z,99.51
2022-08-07T00:08:47.381Z,99.82
2022-08-07T00:10:04.750Z,99.71
2022-08-07T00:10:57.550Z,99.41
2022-08-07T00:11:55.839Z,99.30
2022-08-07T00:12:59.921Z,99.41
2022-08-07T00:13:49.161Z,99.45
2022-08-07T00:14:49.534Z,99.86
2022-08-07T00:15:50.770Z,99.96
2022-08-07T00:16:50.294Z,99.99
2022-08-07T00:17:50.598Z,99.99
2022-08-07T00:18:50.944Z,99.99
2022-08-07T00:20:01.391Z,99.99
2022-08-07T00:20:51.768Z,99.99
2022-08-07T00:21:56.041Z,99.99
2022-08-07T00:22:52.397Z,99.61
2022-08-07T00:23:52.741Z,99.41
2022-08-07T00:24:53.088Z,99.51
2022-08-07T00:26:00.009Z,99.51
2022-08-07T00:26:58.805Z,99.61
2022-08-07T00:27:56.509Z,99.51
2022-08-07T00:28:56.599Z,99.61
2022-08-07T00:29:54.889Z,99.82
2022-08-07T00:30:55.272Z,99.71
2022-08-07T00:31:55.623Z,99.71
2022-08-07T00:32:56.031Z,99.91
2022-08-07T00:33:56.360Z,99.82
2022-08-07T00:34:56.745Z,99.71
2022-08-07T00:35:57.119Z,99.76
2022-08-07T00:36:57.487Z,99.86
2022-08-07T00:37:57.830Z,99.76
2022-08-07T00:38:58.204Z,99.66
2022-08-07T00:39:58.642Z,99.96
2022-08-07T00:40:58.903Z,99.99
2022-08-07T00:42:02.079Z,99.99
2022-08-07T00:42:59.602Z,99.99
2022-08-07T00:44:02.809Z,99.99
2022-08-07T00:45:00.337Z,99.99
2022-08-07T00:46:01.904Z,99.99
2022-08-07T00:47:01.049Z,99.99
2022-08-07T00:48:09.702Z,99.99
2022-08-07T00:49:01.958Z,99.99
2022-08-07T00:50:19.370Z,99.99
2022-08-07T00:51:02.532Z,99.96
2022-08-07T00:52:02.867Z,99.99
2022-08-07T00:53:03.233Z,99.86
2022-08-07T00:54:03.570Z,99.96
2022-08-07T00:55:04.749Z,99.76
2022-08-07T00:56:04.308Z,99.55
2022-08-07T00:57:04.658Z,99.35
2022-08-07T00:58:05.093Z,99.25
2022-08-07T00:59:06.210Z,98.47
2022-08-07T01:00:05.724Z,98.78
2022-08-07T01:01:06.113Z,98.88
2022-08-07T01:02:14.029Z,99.70
2022-08-07T01:03:06.839Z,99.91
2022-08-07T01:04:07.427Z,99.99
2022-08-07T01:05:19.447Z,99.99
2022-08-07T01:06:07.934Z,99.99
2022-08-07T01:07:08.420Z,99.99
2022-08-07T01:08:09.089Z,99.99
2022-08-07T01:09:09.039Z,99.99
2022-08-07T01:10:11.273Z,99.99
2022-08-07T01:12:09.179Z,99.99
2022-08-07T01:12:33.996Z,99.99
2022-08-07T01:13:10.396Z,99.99
2022-08-07T01:14:10.765Z,99.99
2022-08-07T01:15:11.743Z,99.99
2022-08-07T01:16:11.480Z,99.99
2022-08-07T01:17:11.812Z,99.99
2022-08-07T01:18:17.146Z,99.99
2022-08-07T01:19:18.396Z,99.99
2022-08-07T01:20:16.970Z,99.99
2022-08-07T01:21:22.563Z,99.99
2022-08-07T01:22:22.617Z,99.99
2022-08-07T01:23:13.914Z,99.99
2022-08-07T01:24:14.265Z,99.99
2022-08-07T01:25:39.954Z,99.99
2022-08-07T01:26:16.749Z,99.99
2022-08-07T01:27:32.107Z,99.99
2022-08-07T01:28:15.724Z,99.99
2022-08-07T01:29:16.049Z,99.99
2022-08-07T01:30:16.420Z,99.99
2022-08-07T01:31:17.945Z,99.99
2022-08-07T01:32:17.114Z,99.99
2022-08-07T01:33:17.495Z,99.99
2022-08-07T01:34:17.832Z,99.99
2022-08-07T01:35:18.127Z,99.99
2022-08-07T01:36:18.519Z,99.99
2022-08-07T01:37:20.130Z,99.99
2022-08-07T01:38:24.851Z,99.99
2022-08-07T01:39:19.597Z,99.99
2022-08-07T01:40:19.856Z,99.99
2022-08-07T01:41:26.372Z,99.99
2022-08-07T01:42:40.057Z,99.99
2022-08-07T01:43:20.948Z,99.99
2022-08-07T01:44:21.275Z,99.99
2022-08-07T01:45:22.916Z,99.99
2022-08-07T01:46:22.003Z,99.99
2022-08-07T01:48:19.637Z,99.99
2022-08-07T01:48:35.680Z,99.99
2022-08-07T01:49:23.065Z,99.99
2022-08-07T01:50:28.823Z,99.99
2022-08-07T01:52:02.570Z,99.99
2022-08-07T01:52:24.093Z,99.99
2022-08-07T01:54:00.720Z,99.99
2022-08-07T01:54:33.052Z,99.99
2022-08-07T01:55:25.183Z,99.99
2022-08-07T01:56:25.561Z,99.99
2022-08-07T01:57:25.887Z,99.99
2022-08-07T01:58:28.875Z,99.99
2022-08-07T01:59:31.120Z,99.99
2022-08-07T02:00:29.013Z,99.99
2022-08-07T02:01:59.922Z,99.99
2022-08-07T02:02:32.976Z,99.99
2022-08-07T02:03:42.750Z,99.99
2022-08-07T02:04:28.532Z,99.99
2022-08-07T02:05:47.968Z,99.99
2022-08-07T02:06:31.737Z,99.99
2022-08-07T02:07:36.184Z,99.99
2022-08-07T02:08:29.857Z,99.99
2022-08-07T02:09:33.887Z,99.99
2022-08-07T02:10:30.565Z,99.99
2022-08-07T02:12:02.889Z,99.99
2022-08-07T02:12:31.279Z,99.99
2022-08-07T02:13:57.824Z,99.99
2022-08-07T02:14:35.987Z,99.99
2022-08-07T02:15:32.330Z,99.99
2022-08-07T02:16:33.282Z,99.99
2022-08-07T02:17:34.348Z,99.99
2022-08-07T02:18:33.359Z,99.99
2022-08-07T02:20:05.035Z,99.99
2022-08-07T02:20:34.119Z,99.99
2022-08-07T02:21:56.280Z,99.99
2022-08-07T02:22:34.824Z,99.99
2022-08-07T02:23:36.018Z,99.99
2022-08-07T02:24:35.459Z,99.99
2022-08-07T02:26:31.508Z,99.99
2022-08-07T02:26:37.714Z,99.99
2022-08-07T02:27:36.487Z,99.99
2022-08-07T02:28:36.893Z,99.99
2022-08-07T02:29:48.526Z,99.99
2022-08-07T02:30:37.635Z,99.99
2022-08-07T02:31:37.985Z,99.99
2022-08-07T02:32:39.609Z,99.99
2022-08-07T02:33:57.325Z,99.99
2022-08-07T02:34:39.027Z,99.99
2022-08-07T02:36:29.456Z,99.99
2022-08-07T02:36:39.899Z,99.99
2022-08-07T02:37:44.160Z,99.99
2022-08-07T02:38:40.424Z,99.99
2022-08-07T02:39:43.403Z,99.99
2022-08-07T02:40:41.204Z,99.99
2022-08-07T02:41:41.619Z,99.99
2022-08-07T02:42:41.889Z,99.99
2022-08-07T02:43:42.222Z,99.99
2022-08-07T02:44:47.779Z,99.99
2022-08-07T02:45:59.379Z,99.99
2022-08-07T02:46:46.900Z,99.99
2022-08-07T02:47:45.387Z,99.99
2022-08-07T02:48:54.725Z,99.99
2022-08-07T02:49:58.466Z,99.99
2022-08-07T02:50:44.665Z,99.99
2022-08-07T02:51:52.042Z,99.99
2022-08-07T02:52:47.824Z,99.99
2022-08-07T02:53:45.723Z,99.99
2022-08-07T02:54:46.044Z,99.99
2022-08-07T02:56:03.662Z,99.99
2022-08-07T02:56:46.802Z,99.99
2022-08-07T02:57:47.131Z,99.99
2022-08-07T02:58:48.387Z,99.99
2022-08-07T02:59:54.996Z,99.99
2022-08-07T03:00:48.256Z,99.99
2022-08-07T03:01:52.255Z,99.99
2022-08-07T03:02:54.582Z,99.99
2022-08-07T03:03:50.872Z,99.99
2022-08-07T03:04:49.593Z,99.99
2022-08-07T03:05:49.902Z,99.99
2022-08-07T03:06:50.199Z,99.99
2022-08-07T03:08:07.766Z,99.99
2022-08-07T03:08:50.782Z,99.99
2022-08-07T03:09:52.499Z,99.99
2022-08-07T03:10:51.104Z,99.99
2022-08-07T03:11:52.258Z,99.99
2022-08-07T03:12:51.968Z,99.99
2022-08-07T03:13:51.840Z,99.99
2022-08-07T03:14:52.760Z,99.99
2022-08-07T03:15:58.412Z,99.99
2022-08-07T03:16:52.736Z,99.99
2022-08-07T03:17:54.334Z,99.99
2022-08-07T03:18:53.329Z,99.99
2022-08-07T03:19:55.263Z,99.99
2022-08-07T03:20:53.855Z,99.99
2022-08-07T03:21:54.197Z,99.99
2022-08-07T03:22:54.320Z,99.99
2022-08-07T03:24:18.102Z,99.99
2022-08-07T03:24:54.910Z,99.99
2022-08-07T03:25:58.340Z,99.99
2022-08-07T03:26:58.972Z,99.99
2022-08-07T03:28:09.771Z,99.99
2022-08-07T03:28:55.971Z,99.99
2022-08-07T03:29:56.126Z,99.99
2022-08-07T03:30:56.419Z,99.99
2022-08-07T03:31:56.718Z,99.99
2022-08-07T03:32:59.345Z,99.99
2022-08-07T03:33:57.150Z,99.99
2022-08-07T03:35:16.884Z,99.99
2022-08-07T03:35:57.629Z,99.99
2022-08-07T03:36:58.057Z,99.99
2022-08-07T03:37:58.182Z,99.99
2022-08-07T03:38:58.577Z,99.99
2022-08-07T03:40:07.367Z,99.99
2022-08-07T03:40:59.108Z,99.99
2022-08-07T03:42:00.734Z,99.99
2022-08-07T03:42:59.621Z,99.99
2022-08-07T03:43:59.937Z,99.99
2022-08-07T03:45:00.096Z,99.99
2022-08-07T03:46:00.278Z,99.99
2022-08-07T03:47:11.454Z,99.99
2022-08-07T03:48:00.755Z,99.99
2022-08-07T03:49:02.473Z,99.99
2022-08-07T03:50:01.141Z,99.99
2022-08-07T03:51:01.413Z,99.99
2022-08-07T03:52:01.891Z,99.99
2022-08-07T03:53:01.931Z,99.99
2022-08-07T03:54:35.128Z,99.99
2022-08-07T03:55:06.880Z,99.99
2022-08-07T03:56:04.035Z,99.99
2022-08-07T03:57:06.995Z,99.99
2022-08-07T03:58:34.438Z,99.99
2022-08-07T03:59:13.405Z,99.99
2022-08-07T04:00:04.257Z,99.99
2022-08-07T04:01:04.162Z,99.99
2022-08-07T04:02:04.435Z,99.99
2022-08-07T04:03:05.255Z,99.99
2022-08-07T04:04:05.080Z,99.99
2022-08-07T04:05:05.100Z,99.99
2022-08-07T04:06:05.372Z,99.99
2022-08-07T04:07:16.632Z,99.99
2022-08-07T04:08:05.750Z,99.99
2022-08-07T04:09:06.063Z,99.99
2022-08-07T04:10:06.326Z,99.99
2022-08-07T04:12:25.414Z,99.99
2022-08-07T04:12:35.229Z,99.99
2022-08-07T04:13:07.012Z,99.99
2022-08-07T04:14:10.477Z,99.99
2022-08-07T04:15:07.469Z,99.99
2022-08-07T04:16:10.728Z,99.99
2022-08-07T04:17:20.034Z,99.99
2022-08-07T04:18:56.893Z,99.99
2022-08-07T04:19:14.822Z,99.99
2022-08-07T04:20:08.491Z,99.99
2022-08-07T04:21:08.743Z,99.99
2022-08-07T04:22:13.320Z,99.99
2022-08-07T04:23:09.266Z,99.99
2022-08-07T04:24:09.415Z,99.99
2022-08-07T04:25:12.546Z,99.99
2022-08-07T04:26:09.878Z,99.99
2022-08-07T04:27:20.542Z,99.99
2022-08-07T04:28:10.244Z,99.99
2022-08-07T04:29:11.001Z,99.27
2022-08-07T04:30:21.494Z,95.90
2022-08-07T04:31:19.619Z,93.41
2022-08-07T04:32:11.030Z,91.37
2022-08-07T04:33:13.809Z,89.69
2022-08-07T04:34:16.446Z,88.63
2022-08-07T04:35:11.611Z,87.82
2022-08-07T04:36:11.674Z,87.26
2022-08-07T04:37:20.264Z,86.15
2022-08-07T04:38:13.101Z,86.24
2022-08-07T04:39:12.384Z,85.84
2022-08-07T04:40:12.404Z,86.39
2022-08-07T04:41:18.073Z,86.24
2022-08-07T04:42:12.858Z,85.60
2022-08-07T04:43:13.114Z,84.64
2022-08-07T04:44:18.825Z,84.19
2022-08-07T04:45:13.440Z,83.44
2022-08-07T04:46:25.989Z,82.45
2022-08-07T04:47:23.455Z,81.19
2022-08-07T04:48:14.340Z,80.58
2022-08-07T04:49:24.267Z,79.28
2022-08-07T04:50:14.407Z,78.84
2022-08-07T04:51:14.542Z,77.99
2022-08-07T04:52:14.727Z,77.14
2022-08-07T04:53:27.759Z,76.43
2022-08-07T04:54:15.185Z,75.79
2022-08-07T04:58:16.965Z,75.85
2022-08-07T04:59:17.405Z,74.81
2022-08-07T05:00:14.625Z,73.02
2022-08-07T05:00:30.843Z,71.57
2022-08-07T05:01:02.329Z,71.23
2022-08-07T05:02:02.498Z,70.62
2022-08-07T05:03:02.690Z,70.62
2022-08-07T05:04:08.352Z,69.98
2022-08-07T05:05:03.098Z,69.65
2022-08-07T05:06:03.234Z,70.15
2022-08-07T05:07:19.439Z,69.85
2022-08-07T05:08:03.608Z,69.11
2022-08-07T05:09:03.896Z,68.41
2022-08-07T05:10:04.503Z,68.10
2022-08-07T05:11:04.171Z,68.81
2022-08-07T05:12:04.759Z,68.41
2022-08-07T05:14:44.517Z,68.57
2022-08-07T05:15:04.182Z,68.04
2022-08-07T05:15:09.246Z,67.00
2022-08-07T05:16:08.303Z,66.39
2022-08-07T05:17:11.825Z,66.09
2022-08-07T05:18:10.406Z,66.19
2022-08-07T05:19:08.873Z,66.16
2022-08-07T05:20:09.935Z,65.46
2022-08-07T05:21:09.261Z,65.02
2022-08-07T05:22:09.439Z,65.12
2022-08-07T05:23:15.794Z,64.72
2022-08-07T05:24:09.805Z,65.36
2022-08-07T05:25:11.705Z,65.79
2022-08-07T05:26:13.401Z,65.56
2022-08-07T05:27:23.448Z,65.12
2022-08-07T05:28:23.360Z,64.72
2022-08-07T05:29:10.775Z,64.42
2022-08-07T05:30:10.981Z,64.32
2022-08-07T05:31:11.165Z,64.82
2022-08-07T05:32:11.369Z,65.29
2022-08-07T05:33:11.609Z,66.63
2022-08-07T05:34:11.991Z,66.30
2022-08-07T05:35:11.921Z,65.86
2022-08-07T05:36:22.546Z,65.89
2022-08-07T05:37:12.243Z,65.66
2022-08-07T05:38:12.429Z,65.69
2022-08-07T05:40:06.030Z,66.47
2022-08-07T05:40:22.765Z,65.36
2022-08-07T05:41:15.879Z,65.33
2022-08-07T05:42:13.208Z,64.69
2022-08-07T05:43:13.323Z,64.66
2022-08-07T05:44:13.573Z,64.63
2022-08-07T05:45:26.170Z,62.99
2022-08-07T05:46:13.906Z,62.69
2022-08-07T05:47:18.621Z,62.06
2022-08-07T05:48:14.318Z,61.76
2022-08-07T05:49:14.605Z,61.93
2022-08-07T05:50:14.675Z,61.40
2022-08-07T05:51:14.866Z,61.40
2022-08-07T05:52:15.075Z,60.80
2022-08-07T05:54:12.732Z,60.80
2022-08-07T05:54:53.438Z,61.19
2022-08-07T05:55:15.661Z,60.86
2022-08-07T05:56:15.811Z,60.80
2022-08-07T05:57:15.995Z,60.97
2022-08-07T05:58:16.186Z,60.69
2022-08-07T05:59:16.495Z,61.93
2022-08-07T06:00:17.784Z,62.59
2022-08-07T06:01:16.858Z,62.76
2022-08-07T06:02:21.733Z,62.56
2022-08-07T06:03:17.160Z,63.03
2022-08-07T06:04:17.588Z,63.10
2022-08-07T06:05:17.589Z,61.67
2022-08-07T06:06:18.869Z,60.44
2022-08-07T06:07:32.715Z,60.31
2022-08-07T06:08:34.666Z,59.88
2022-08-07T06:09:18.369Z,61.04
2022-08-07T06:10:18.490Z,61.36
2022-08-07T06:11:18.696Z,61.24
2022-08-07T06:12:20.974Z,61.01
2022-08-07T06:13:19.043Z,59.88
2022-08-07T06:14:20.942Z,58.85
2022-08-07T06:15:19.893Z,60.12
2022-08-07T06:16:19.647Z,58.92
2022-08-07T06:17:22.339Z,58.02
2022-08-07T06:18:19.978Z,59.22
2022-08-07T06:19:57.573Z,60.02
2022-08-07T06:20:32.073Z,59.48
2022-08-07T06:22:15.778Z,61.54
2022-08-07T06:22:28.310Z,61.97
2022-08-07T06:23:46.869Z,63.03
2022-08-07T06:24:58.220Z,64.70
2022-08-07T06:25:21.288Z,65.67
2022-08-07T06:26:21.511Z,67.44
2022-08-07T06:27:22.693Z,68.31
2022-08-07T06:28:28.004Z,69.99
2022-08-07T06:29:22.045Z,71.64
2022-08-07T06:30:31.876Z,73.79
2022-08-07T06:31:38.387Z,73.93
2022-08-07T06:32:22.632Z,74.26
2022-08-07T06:33:22.966Z,75.88
2022-08-07T06:34:23.085Z,75.61
2022-08-07T06:35:23.157Z,76.02
2022-08-07T06:36:34.914Z,76.52
2022-08-07T06:37:23.543Z,75.61
2022-08-07T06:38:23.734Z,75.71
2022-08-07T06:40:13.237Z,75.71
2022-08-07T06:40:24.443Z,76.72
2022-08-07T06:41:58.777Z,76.93
2022-08-07T06:42:32.810Z,76.12
2022-08-07T06:43:24.639Z,76.62
2022-08-07T06:44:24.842Z,75.51
2022-08-07T06:45:25.020Z,76.02
2022-08-07T06:46:34.952Z,76.08
2022-08-07T06:47:27.002Z,76.18
2022-08-07T06:48:25.583Z,75.17
2022-08-07T06:49:25.737Z,75.37
2022-08-07T06:50:25.993Z,76.04
2022-08-07T06:51:33.298Z,75.74
2022-08-07T06:52:31.957Z,74.93
2022-08-07T06:55:29.920Z,74.13
2022-08-07T06:55:48.094Z,74.43
2022-08-07T06:56:07.555Z,73.93
2022-08-07T06:56:50.506Z,73.99
2022-08-07T06:57:52.197Z,72.98
2022-08-07T07:00:11.978Z,72.71
2022-08-07T07:00:20.635Z,72.91
2022-08-07T07:00:52.859Z,73.52
2022-08-07T07:01:50.962Z,73.08
2022-08-07T07:02:54.240Z,72.41
2022-08-07T07:03:58.879Z,72.88
2022-08-07T07:04:54.893Z,72.78
2022-08-07T07:06:03.730Z,72.38
2022-08-07T07:07:00.462Z,72.27
2022-08-07T07:07:59.717Z,71.77
2022-08-07T07:08:51.556Z,72.11
2022-08-07T07:09:51.742Z,72.38
2022-08-07T07:10:57.034Z,72.68
2022-08-07T07:12:08.781Z,72.14
2022-08-07T07:12:53.469Z,72.44
2022-08-07T07:13:57.966Z,72.04
2022-08-07T07:14:53.678Z,71.91
2022-08-07T07:15:52.894Z,70.69
2022-08-07T07:16:53.636Z,70.62
2022-08-07T07:17:53.299Z,70.62
2022-08-07T07:18:53.449Z,70.73
2022-08-07T07:19:57.408Z,70.69
2022-08-07T07:20:53.826Z,70.49
2022-08-07T07:22:04.789Z,70.39
2022-08-07T07:24:09.887Z,69.99
2022-08-07T07:24:16.675Z,69.45
2022-08-07T07:24:58.507Z,69.45
2022-08-07T07:26:35.008Z,69.55
2022-08-07T07:26:54.952Z,69.05
2022-08-07T07:27:58.500Z,68.31
2022-08-07T07:29:56.679Z,67.63
2022-08-07T07:30:12.504Z,68.31
2022-08-07T07:30:55.752Z,67.71
2022-08-07T07:31:55.905Z,67.30
2022-08-07T07:32:56.091Z,67.03
2022-08-07T07:33:57.146Z,68.24
2022-08-07T07:34:56.452Z,67.43
2022-08-07T07:36:05.449Z,66.53
2022-08-07T07:36:56.810Z,67.23
2022-08-07T07:38:02.744Z,68.04
2022-08-07T07:38:57.221Z,64.84
2022-08-07T07:39:57.386Z,65.92
2022-08-07T07:41:01.921Z,65.52
2022-08-07T07:42:12.906Z,65.01
2022-08-07T07:42:57.959Z,65.82
2022-08-07T07:44:17.558Z,66.02
2022-08-07T07:44:58.343Z,66.22
2022-08-07T07:46:37.635Z,65.69
2022-08-07T07:47:11.943Z,64.69
2022-08-07T07:47:58.877Z,64.28
2022-08-07T07:48:59.931Z,63.95
2022-08-07T07:50:34.217Z,64.35
2022-08-07T07:50:59.424Z,64.58
2022-08-07T07:51:59.886Z,64.55
2022-08-07T07:53:00.749Z,64.78
2022-08-07T07:54:00.000Z,64.25
2022-08-07T07:55:00.195Z,64.45
2022-08-07T07:56:01.176Z,64.86
2022-08-07T07:57:01.438Z,64.52
2022-08-07T07:58:00.748Z,65.53
2022-08-07T07:59:01.410Z,64.29
2022-08-07T08:00:01.138Z,64.19
2022-08-07T08:01:01.380Z,62.61
2022-08-07T08:02:10.666Z,63.31
2022-08-07T08:03:06.279Z,63.82
2022-08-07T08:04:06.170Z,64.72
2022-08-07T08:05:02.062Z,63.51
2022-08-07T08:06:02.225Z,63.08
2022-08-07T08:07:02.770Z,61.87
2022-08-07T08:08:02.857Z,62.81
2022-08-07T08:09:02.815Z,62.88
2022-08-07T08:10:05.323Z,63.39
2022-08-07T08:11:03.165Z,63.05
2022-08-07T08:12:05.023Z,62.48
2022-08-07T08:13:03.569Z,62.68
2022-08-07T08:14:03.747Z,61.87
2022-08-07T08:15:06.755Z,62.91
2022-08-07T08:16:04.126Z,62.01
2022-08-07T08:17:32.357Z,62.91
2022-08-07T08:18:17.605Z,63.42
2022-08-07T08:19:18.081Z,60.60
2022-08-07T08:20:26.262Z,60.89
2022-08-07T08:21:05.052Z,60.57
2022-08-07T08:22:05.208Z,60.16
2022-08-07T08:23:06.456Z,60.57
2022-08-07T08:24:05.642Z,60.36
2022-08-07T08:25:24.699Z,59.53
2022-08-07T08:26:07.203Z,60.97
2022-08-07T08:27:09.559Z,61.04
2022-08-07T08:28:06.408Z,61.54
2022-08-07T08:29:06.585Z,60.61
2022-08-07T08:30:06.746Z,60.03
2022-08-07T08:31:06.937Z,60.16
2022-08-07T08:32:17.918Z,59.16
2022-08-07T08:33:10.447Z,60.77
2022-08-07T08:34:07.500Z,60.33
2022-08-07T08:35:07.679Z,60.13
2022-08-07T08:36:07.877Z,60.67
2022-08-07T08:37:09.874Z,60.94
2022-08-07T08:38:08.479Z,60.53
2022-08-07T08:39:08.462Z,58.09
2022-08-07T08:40:11.508Z,58.00
2022-08-07T08:41:08.815Z,57.97
2022-08-07T08:42:09.257Z,57.67
2022-08-07T08:43:09.246Z,57.67
2022-08-07T08:44:09.363Z,59.27
2022-08-07T08:45:13.379Z,59.20
2022-08-07T08:46:09.748Z,59.23
2022-08-07T08:47:11.357Z,61.17
2022-08-07T08:48:10.782Z,60.77
2022-08-07T08:49:10.335Z,61.04
2022-08-07T08:50:10.844Z,59.30
2022-08-07T08:51:14.513Z,59.00
2022-08-07T08:52:14.525Z,57.94
2022-08-07T08:53:11.094Z,57.51
2022-08-07T08:54:11.280Z,58.09
2022-08-07T08:55:12.146Z,56.83
2022-08-07T08:56:12.092Z,57.63
2022-08-07T08:57:11.822Z,56.57
2022-08-07T08:58:13.254Z,54.85
2022-08-07T08:59:13.960Z,55.27
2022-08-07T09:00:12.382Z,53.49
2022-08-07T09:01:14.700Z,52.74
2022-08-07T09:02:13.280Z,52.62
2022-08-07T09:03:12.960Z,53.49
2022-08-07T09:04:13.527Z,52.55
2022-08-07T09:05:14.669Z,51.79
2022-08-07T09:06:13.549Z,51.77
2022-08-07T09:07:13.760Z,51.07
2022-08-07T09:08:17.871Z,51.37
2022-08-07T09:09:21.013Z,53.27
2022-08-07T09:10:14.327Z,54.02
2022-08-07T09:11:24.715Z,53.89
2022-08-07T09:12:31.312Z,52.87
2022-08-07T09:13:15.040Z,53.17
2022-08-07T09:14:15.040Z,52.67
2022-08-07T09:16:21.523Z,52.12
2022-08-07T09:16:31.446Z,50.57
2022-08-07T09:17:15.602Z,50.15
2022-08-07T09:18:22.276Z,48.93
2022-08-07T09:19:51.798Z,50.60
2022-08-07T09:20:35.909Z,51.22
2022-08-07T09:21:33.742Z,52.42
2022-08-07T09:24:28.983Z,52.04
2022-08-07T09:24:55.241Z,53.12
2022-08-07T09:25:12.040Z,51.59
2022-08-07T09:25:54.362Z,51.50
2022-08-07T09:26:47.831Z,50.70
2022-08-07T09:28:00.001Z,50.90
2022-08-07T09:30:04.644Z,51.84
2022-08-07T09:30:13.974Z,52.89
2022-08-07T09:30:46.324Z,54.35
2022-08-07T09:31:48.456Z,54.35
2022-08-07T09:32:46.411Z,53.87
2022-08-07T09:33:56.720Z,53.32
2022-08-07T09:34:53.694Z,51.75
2022-08-07T09:36:04.671Z,53.82
2022-08-07T09:36:49.828Z,53.55
2022-08-07T09:37:53.971Z,54.24
2022-08-07T09:38:50.198Z,54.80
2022-08-07T09:39:54.149Z,55.70
2022-08-07T09:40:47.909Z,55.67
2022-08-07T09:41:59.156Z,54.29
2022-08-07T09:42:50.391Z,53.97
2022-08-07T09:44:05.981Z,54.19
2022-08-07T09:47:27.512Z,54.57
2022-08-07T09:48:08.932Z,53.02
2022-08-07T09:48:19.062Z,52.97
2022-08-07T09:50:00.731Z,53.92
2022-08-07T09:50:18.610Z,53.04
2022-08-07T09:52:10.565Z,51.72
2022-08-07T09:52:37.740Z,51.05
2022-08-07T09:53:16.603Z,49.63
2022-08-07T09:54:16.814Z,49.43
2022-08-07T09:55:36.951Z,50.32
2022-08-07T09:56:19.729Z,52.97
2022-08-07T09:57:17.379Z,53.89
2022-08-07T09:58:17.679Z,53.49
2022-08-07T09:59:22.036Z,52.74
2022-08-07T10:00:18.799Z,52.19
2022-08-07T10:01:51.439Z,52.97
2022-08-07T10:02:18.337Z,54.05
2022-08-07T10:04:03.098Z,55.07
2022-08-07T10:04:32.572Z,55.47
2022-08-07T10:05:18.972Z,52.94
2022-08-07T10:06:19.237Z,51.17
2022-08-07T10:07:24.496Z,49.95
2022-08-07T10:08:19.641Z,50.95
2022-08-07T10:09:34.570Z,51.84
2022-08-07T10:10:21.276Z,51.15
2022-08-07T10:12:03.308Z,51.72
2022-08-07T10:12:21.899Z,50.23
2022-08-07T10:13:54.833Z,49.38
2022-08-07T10:14:23.083Z,48.66
2022-08-07T10:15:20.985Z,48.02
2022-08-07T10:16:21.171Z,48.19
2022-08-07T10:17:21.385Z,49.71
2022-08-07T10:18:22.060Z,48.41
2022-08-07T10:19:21.771Z,47.92
2022-08-07T10:20:22.295Z,49.26
2022-08-07T10:22:14.137Z,50.47
2022-08-07T10:22:24.919Z,51.82
2022-08-07T10:24:04.773Z,50.99
2022-08-07T10:24:22.729Z,51.72
2022-08-07T10:25:23.141Z,50.35
2022-08-07T10:26:24.685Z,53.14
2022-08-07T10:27:24.187Z,55.07
2022-08-07T10:28:23.534Z,56.00
2022-08-07T10:29:23.720Z,56.93
2022-08-07T10:30:24.947Z,55.55
2022-08-07T10:31:24.092Z,54.39
2022-08-07T10:32:37.060Z,53.14
2022-08-07T10:34:07.028Z,51.67
2022-08-07T10:34:27.275Z,50.35
2022-08-07T10:35:25.786Z,49.63
2022-08-07T10:36:29.348Z,50.23
2022-08-07T10:37:48.376Z,48.58
2022-08-07T10:38:36.011Z,48.88
2022-08-07T10:39:25.813Z,50.27
2022-08-07T10:40:30.021Z,52.25
2022-08-07T10:41:52.368Z,53.59
2022-08-07T10:42:31.287Z,53.89
2022-08-07T10:43:34.243Z,53.92
2022-08-07T10:44:28.442Z,53.32
2022-08-07T10:45:44.626Z,53.02
2022-08-07T10:46:27.078Z,53.34
2022-08-07T10:47:52.497Z,53.87
2022-08-07T10:48:34.653Z,54.90
2022-08-07T10:49:45.265Z,54.97
2022-08-07T10:50:27.869Z,52.49
2022-08-07T10:51:57.547Z,51.45
2022-08-07T10:52:31.873Z,49.80
2022-08-07T10:53:28.511Z,51.64
2022-08-07T10:54:28.665Z,51.97
2022-08-07T10:55:38.050Z,52.39
2022-08-07T10:56:31.365Z,51.82
2022-08-07T10:57:34.526Z,52.12
2022-08-07T10:58:33.160Z,51.89
2022-08-07T10:59:30.458Z,50.49
2022-08-07T11:00:36.892Z,48.93
2022-08-07T11:01:35.153Z,47.99
2022-08-07T11:02:34.088Z,46.95
2022-08-07T11:03:37.938Z,47.22
2022-08-07T11:04:34.696Z,44.70
2022-08-07T11:05:35.861Z,44.45
2022-08-07T11:06:31.071Z,43.56
2022-08-07T11:07:58.289Z,44.62
2022-08-07T11:08:31.376Z,44.98
2022-08-07T11:10:08.971Z,45.26
2022-08-07T11:10:31.755Z,47.85
2022-08-07T11:11:35.610Z,49.97
2022-08-07T11:12:35.343Z,52.69
2022-08-07T11:14:42.557Z,53.74
2022-08-07T11:15:00.362Z,55.17
2022-08-07T11:15:32.723Z,55.07
2022-08-07T11:16:32.916Z,52.37
2022-08-07T11:17:45.530Z,52.07
2022-08-07T11:18:33.380Z,52.39
2022-08-07T11:19:33.509Z,52.32
2022-08-07T11:20:33.696Z,50.10
2022-08-07T11:21:33.934Z,49.62
2022-08-07T11:22:37.103Z,50.77
2022-08-07T11:23:38.429Z,50.57
2022-08-07T11:24:34.468Z,50.99
2022-08-07T11:25:36.287Z,51.59
2022-08-07T11:26:34.837Z,52.39
2022-08-07T11:28:01.510Z,51.94
2022-08-07T11:28:35.233Z,51.64
2022-08-07T11:29:41.914Z,51.25
2022-08-07T11:30:41.479Z,51.54
2022-08-07T11:31:35.821Z,51.74
2022-08-07T11:32:36.019Z,52.02
2022-08-07T11:33:59.254Z,50.52
2022-08-07T11:34:36.468Z,49.68
2022-08-07T11:35:36.647Z,48.78
2022-08-07T11:36:36.812Z,48.53
2022-08-07T11:37:38.618Z,46.89
2022-08-07T11:38:37.231Z,47.14
2022-08-07T11:39:39.691Z,45.59
2022-08-07T11:40:37.631Z,43.76
2022-08-07T11:42:02.018Z,42.85
2022-08-07T11:42:38.027Z,42.47
2022-08-07T11:43:54.623Z,41.97
2022-08-07T11:44:38.418Z,41.08
2022-08-07T11:45:38.601Z,41.26
2022-08-07T11:46:38.811Z,41.82
2022-08-07T11:47:56.417Z,42.41
2022-08-07T11:48:39.233Z,42.31
2022-08-07T11:50:30.117Z,43.24
2022-08-07T11:50:44.696Z,43.59
2022-08-07T11:51:41.261Z,46.04
2022-08-07T11:52:40.049Z,49.62
2022-08-07T11:53:43.224Z,52.27
2022-08-07T11:54:40.453Z,53.89
2022-08-07T11:56:09.741Z,54.52
2022-08-07T11:56:40.843Z,54.74
2022-08-07T11:58:00.526Z,55.57
2022-08-07T11:58:41.247Z,57.40
2022-08-07T12:00:10.247Z,57.80
2022-08-07T12:00:41.601Z,57.80
2022-08-07T12:01:59.819Z,58.50
2022-08-07T12:02:52.094Z,57.83
2022-08-07T12:03:45.990Z,58.03
2022-08-07T12:04:42.351Z,58.53
2022-08-07T12:05:49.356Z,58.26
2022-08-07T12:06:50.247Z,58.26
2022-08-07T12:07:43.171Z,58.53
2022-08-07T12:08:43.104Z,57.93
2022-08-07T12:09:43.247Z,58.33
2022-08-07T12:10:43.453Z,57.50
2022-08-07T12:12:09.450Z,57.20
2022-08-07T12:12:43.843Z,57.30
2022-08-07T12:13:47.742Z,57.13
2022-08-07T12:14:44.191Z,57.63
2022-08-07T12:16:05.339Z,58.13
2022-08-07T12:16:44.568Z,58.63
2022-08-07T12:17:59.354Z,57.63
2022-08-07T12:18:45.261Z,58.50
2022-08-07T12:19:56.873Z,58.30
2022-08-07T12:20:45.326Z,57.87
2022-08-07T12:21:55.987Z,57.35
2022-08-07T12:22:56.521Z,56.45
2022-08-07T12:24:07.707Z,56.05
2022-08-07T12:24:46.106Z,56.02
2022-08-07T12:26:05.529Z,55.99
2022-08-07T12:26:49.352Z,54.17
2022-08-07T12:28:08.979Z,54.97
2022-08-07T12:28:49.759Z,54.37
2022-08-07T12:29:47.115Z,54.17
2022-08-07T12:30:53.170Z,53.67
2022-08-07T12:31:53.176Z,53.67
2022-08-07T12:32:49.093Z,53.84
2022-08-07T12:34:00.662Z,54.19
2022-08-07T12:34:49.412Z,53.07
2022-08-07T12:35:48.378Z,50.10
2022-08-07T12:36:49.392Z,51.07
2022-08-07T12:38:10.888Z,50.79
2022-08-07T12:38:57.245Z,50.23
2022-08-07T12:39:50.985Z,49.43
2022-08-07T12:40:50.364Z,48.68
2022-08-07T12:41:51.572Z,48.31
2022-08-07T12:42:54.891Z,48.11
2022-08-07T12:44:02.792Z,47.21
2022-08-07T12:44:50.130Z,47.44
2022-08-07T12:45:52.467Z,48.21
2022-08-07T12:46:50.829Z,48.01
2022-08-07T12:47:50.719Z,48.68
2022-08-07T12:48:52.531Z,46.77
2022-08-07T12:49:53.811Z,47.64
2022-08-07T12:50:51.398Z,47.14
2022-08-07T12:52:14.547Z,48.08
2022-08-07T12:52:52.294Z,48.53
2022-08-07T12:54:02.974Z,48.71
2022-08-07T12:54:54.711Z,49.03
2022-08-07T12:56:02.018Z,49.35
2022-08-07T12:56:55.290Z,50.45
2022-08-07T12:58:00.381Z,50.35
2022-08-07T12:58:57.255Z,50.57
2022-08-07T12:59:54.611Z,49.55